Time;durP1;ratioP1;P1;durP2;ratioP2;P2;SDS_P1;SDS_P2;PMS_P1;PMS_P2;Temp;Humidity;BMP_temperature;BMP_pressure;BME280_temperature;BME280_humidity;BME280_pressure;Samples;Min_cycle;Max_cycle;Signal;HPM_P1;HPM_P2
2021/07/28 00:02:05;;;;;;;3.63;2.75;;;21.60;66.10;;;;;;4974728;28;20035;-80
2021/07/28 00:04:38;;;;;;;4.53;2.83;;;21.50;66.10;;;;;;4974151;28;20063;-81
2021/07/28 00:07:05;;;;;;;3.40;2.50;;;21.50;66.20;;;;;;4958347;28;20034;-80
2021/07/28 00:09:31;;;;;;;4.15;2.53;;;21.50;66.20;;;;;;4958373;28;20035;-80
2021/07/28 00:11:57;;;;;;;3.88;2.70;;;21.50;66.20;;;;;;4974284;28;20081;-80
2021/07/28 00:14:23;;;;;;;3.50;2.60;;;21.40;66.20;;;;;;4958382;28;20031;-80
2021/07/28 00:16:49;;;;;;;4.05;2.60;;;21.40;66.20;;;;;;4958304;28;20034;-80
2021/07/28 00:19:25;;;;;;;3.75;2.35;;;21.40;66.30;;;;;;4974499;28;20029;-81
2021/07/28 00:24:35;;;;;;;4.38;2.70;;;21.40;66.30;;;;;;4974430;28;20052;-80
2021/07/28 00:27:01;;;;;;;3.97;2.72;;;21.40;66.30;;;;;;4958476;28;20030;-80
2021/07/28 00:29:29;;;;;;;3.10;2.47;;;21.30;66.30;;;;;;4974095;28;20112;-81
2021/07/28 00:31:55;;;;;;;3.45;2.55;;;21.40;66.50;;;;;;4958071;28;20030;-81
2021/07/28 00:34:21;;;;;;;3.85;2.63;;;21.30;66.40;;;;;;4957874;28;20027;-81
2021/07/28 00:36:47;;;;;;;4.00;2.70;;;21.30;66.40;;;;;;4973616;28;20066;-79
2021/07/28 00:39:13;;;;;;;4.10;2.70;;;21.30;67.00;;;;;;4957128;28;20476;-80
2021/07/28 00:41:44;;;;;;;3.70;2.70;;;21.30;66.40;;;;;;4974718;28;20114;-80
2021/07/28 00:44:11;;;;;;;4.13;2.90;;;21.20;66.50;;;;;;4957809;28;20054;-81
2021/07/28 00:46:37;;;;;;;3.78;2.88;;;21.20;66.50;;;;;;4957670;28;20035;-80
2021/07/28 00:49:03;;;;;;;4.68;2.60;;;21.20;66.50;;;;;;4957675;28;20534;-80
2021/07/28 00:51:29;;;;;;;4.25;2.95;;;21.20;66.50;;;;;;4975051;28;20114;-80
2021/07/28 00:53:57;;;;;;;3.45;2.38;;;21.20;66.50;;;;;;4973777;28;20031;-80
2021/07/28 00:56:24;;;;;;;4.20;2.90;;;21.20;66.60;;;;;;4974669;28;20483;-80
2021/07/28 00:58:50;;;;;;;3.70;2.75;;;21.10;66.50;;;;;;4958130;28;20027;-80
2021/07/28 01:01:16;;;;;;;3.75;2.72;;;21.10;66.50;;;;;;4973229;28;20057;-80
2021/07/28 01:03:42;;;;;;;4.55;2.72;;;21.10;66.50;;;;;;4973662;28;20100;-80
2021/07/28 01:06:09;;;;;;;4.25;3.13;;;21.10;66.60;;;;;;4958236;28;20395;-80
2021/07/28 01:08:35;;;;;;;3.30;2.40;;;21.10;66.70;;;;;;4957510;28;20392;-81
2021/07/28 01:11:04;;;;;;;4.10;2.80;;;21.00;66.60;;;;;;4973829;28;20023;-79
2021/07/28 01:13:31;;;;;;;4.10;3.10;;;21.00;66.70;;;;;;4958017;28;20061;-80
2021/07/28 01:16:09;;;;;;;3.90;3.00;;;21.00;66.60;;;;;;4973615;28;20034;-80
2021/07/28 01:18:35;;;;;;;3.95;2.70;;;21.00;66.80;;;;;;4957171;28;20038;-80
2021/07/28 01:21:03;;;;;;;3.92;2.80;;;20.90;66.60;;;;;;4957319;28;20118;-81
2021/07/28 01:23:30;;;;;;;4.60;3.10;;;20.90;66.70;;;;;;4973499;28;20035;-80
2021/07/28 01:25:59;;;;;;;3.78;2.70;;;20.90;66.70;;;;;;4957214;28;20019;-81
2021/07/28 01:28:26;;;;;;;4.50;3.13;;;20.90;66.70;;;;;;4974542;28;20094;-80
2021/07/28 01:31:03;;;;;;;3.95;2.95;;;20.90;66.80;;;;;;4973578;28;20038;-80
2021/07/28 01:33:34;;;;;;;3.90;2.65;;;20.90;66.90;;;;;;4956974;28;20027;-80
2021/07/28 01:36:01;;;;;;;4.13;3.17;;;20.80;66.80;;;;;;4973254;28;20037;-79
2021/07/28 01:38:28;;;;;;;3.95;2.78;;;20.80;66.70;;;;;;4957326;28;20472;-80
2021/07/28 01:40:58;;;;;;;3.97;2.95;;;20.80;66.70;;;;;;4974464;28;20086;-80
2021/07/28 01:43:27;;;;;;;4.05;2.75;;;20.80;66.80;;;;;;4957447;28;20030;-80
2021/07/28 01:45:53;;;;;;;4.10;2.95;;;20.80;66.80;;;;;;4957190;28;20027;-80
2021/07/28 01:48:19;;;;;;;3.42;2.58;;;20.70;66.80;;;;;;4957212;28;20121;-80
2021/07/28 01:50:46;;;;;;;3.25;2.50;;;20.70;66.80;;;;;;4959296;28;20471;-80
2021/07/28 01:53:12;;;;;;;4.88;2.95;;;20.70;66.90;;;;;;4978199;28;20027;-80
2021/07/28 01:55:38;;;;;;;4.57;3.10;;;20.70;66.90;;;;;;4961473;28;20058;-80
2021/07/28 01:58:04;;;;;;;3.78;2.88;;;20.60;66.80;;;;;;4976977;28;20074;-80
2021/07/28 02:00:29;;;;;;;4.03;2.92;;;20.70;66.90;;;;;;4976730;28;20050;-80
2021/07/28 02:03:02;;;;;;;3.72;2.67;;;20.60;66.90;;;;;;4960764;28;20041;-80
2021/07/28 02:05:40;;;;;;;4.45;2.80;;;20.60;66.90;;;;;;4960695;28;20046;-80
2021/07/28 02:08:08;;;;;;;3.40;2.65;;;20.60;67.00;;;;;;4978161;28;20026;-79
2021/07/28 02:10:39;;;;;;;3.92;2.63;;;20.60;67.00;;;;;;4960455;28;20384;-80
2021/07/28 02:13:05;;;;;;;4.63;3.03;;;20.50;67.00;;;;;;4978287;28;20464;-80
2021/07/28 02:15:32;;;;;;;4.03;2.72;;;20.50;67.00;;;;;;4960373;28;20560;-80
2021/07/28 02:17:59;;;;;;;4.28;3.13;;;20.50;67.10;;;;;;4960468;28;20065;-80
2021/07/28 02:20:26;;;;;;;3.40;2.70;;;20.50;67.10;;;;;;4960762;28;20133;-80
2021/07/28 02:22:52;;;;;;;4.75;3.30;;;20.50;67.10;;;;;;4960412;28;20045;-80
2021/07/28 02:25:19;;;;;;;4.18;3.15;;;20.50;67.10;;;;;;4960431;28;20031;-80
2021/07/28 02:27:44;;;;;;;4.57;2.92;;;20.40;67.10;;;;;;4960108;28;20062;-80
2021/07/28 02:30:12;;;;;;;4.28;3.20;;;20.40;67.10;;;;;;4960102;28;20113;-80
2021/07/28 02:32:38;;;;;;;4.00;3.03;;;20.40;67.20;;;;;;4960145;28;20499;-79
2021/07/28 02:35:06;;;;;;;5.05;3.05;;;20.40;67.20;;;;;;4960305;28;20459;-80
2021/07/28 02:37:33;;;;;;;4.07;2.83;;;20.40;67.20;;;;;;4959773;28;20054;-80
2021/07/28 02:39:58;;;;;;;4.28;3.08;;;20.40;67.20;;;;;;4977877;28;20027;-79
2021/07/28 02:42:24;;;;;;;4.50;3.10;;;20.40;67.30;;;;;;4959951;28;20039;-80
2021/07/28 02:44:50;;;;;;;4.20;3.10;;;20.30;67.20;;;;;;4977278;28;20495;-80
2021/07/28 02:47:16;;;;;;;4.20;3.10;;;20.30;67.30;;;;;;4959869;28;20039;-80
2021/07/28 02:49:42;;;;;;;4.00;2.97;;;20.30;67.30;;;;;;4976016;28;20391;-79
2021/07/28 02:52:07;;;;;;;4.00;2.83;;;20.30;67.30;;;;;;4959956;28;20490;-80
2021/07/28 02:54:34;;;;;;;3.55;2.75;;;20.30;67.30;;;;;;4960002;28;20099;-79
2021/07/28 02:56:59;;;;;;;4.60;3.15;;;20.30;67.40;;;;;;4959483;28;20510;-79
2021/07/28 02:59:25;;;;;;;3.80;3.15;;;20.30;67.40;;;;;;4975783;28;20034;-80
2021/07/28 03:01:52;;;;;;;4.43;3.10;;;20.20;67.40;;;;;;4958900;28;20341;-79
2021/07/28 03:04:19;;;;;;;3.80;2.78;;;20.20;67.40;;;;;;4959705;28;20030;-80
2021/07/28 03:06:46;;;;;;;4.18;2.92;;;20.20;67.40;;;;;;4959333;28;20436;-80
2021/07/28 03:09:11;;;;;;;3.85;2.80;;;20.20;67.50;;;;;;4975686;28;20515;-79
2021/07/28 03:11:37;;;;;;;3.85;2.78;;;20.20;67.40;;;;;;4960201;28;20030;-80
2021/07/28 03:14:03;;;;;;;3.40;2.50;;;20.20;67.50;;;;;;4976341;28;20375;-80
2021/07/28 03:16:29;;;;;;;4.10;2.72;;;20.20;67.50;;;;;;4959399;28;20034;-79
2021/07/28 03:18:55;;;;;;;4.70;3.15;;;20.20;67.50;;;;;;4975374;28;20058;-80
2021/07/28 03:21:21;;;;;;;3.53;2.67;;;20.10;67.50;;;;;;4976127;28;20042;-79
2021/07/28 03:23:47;;;;;;;4.10;2.92;;;20.10;67.50;;;;;;4959624;28;20066;-79
2021/07/28 03:26:13;;;;;;;4.00;3.03;;;20.10;67.60;;;;;;4975201;28;20046;-79
2021/07/28 03:28:38;;;;;;;4.72;3.17;;;20.10;67.60;;;;;;4975292;28;20546;-80
2021/07/28 03:31:04;;;;;;;3.83;2.58;;;20.10;67.60;;;;;;4975344;28;20162;-79
2021/07/28 03:33:30;;;;;;;3.97;2.95;;;20.10;67.70;;;;;;4976457;28;20490;-80
2021/07/28 03:35:56;;;;;;;3.22;2.60;;;20.10;67.70;;;;;;4975191;28;20046;-80
2021/07/28 03:38:22;;;;;;;4.75;3.10;;;20.10;67.70;;;;;;4975615;28;20058;-79
2021/07/28 03:40:48;;;;;;;3.83;2.85;;;20.10;67.80;;;;;;4959245;28;20039;-80
2021/07/28 03:43:14;;;;;;;4.35;2.85;;;20.10;67.80;;;;;;4959239;28;20479;-80
2021/07/28 03:45:40;;;;;;;3.40;2.50;;;20.10;67.80;;;;;;4975177;28;20472;-80
2021/07/28 03:48:06;;;;;;;3.70;2.70;;;20.00;67.80;;;;;;4974816;28;20034;-80
2021/07/28 03:50:32;;;;;;;4.00;2.70;;;20.10;67.90;;;;;;4975015;28;20041;-80
2021/07/28 03:53:00;;;;;;;3.67;2.67;;;20.10;67.90;;;;;;4959518;28;20038;-80
2021/07/28 03:55:26;;;;;;;4.22;2.67;;;20.10;68.00;;;;;;4974810;28;20074;-80
2021/07/28 03:57:52;;;;;;;3.88;2.80;;;20.00;67.90;;;;;;4958593;28;20031;-80
2021/07/28 04:00:18;;;;;;;2.50;2.08;;;20.00;67.90;;;;;;4974682;28;20058;-80
2021/07/28 04:02:44;;;;;;;4.05;2.88;;;20.00;68.00;;;;;;4958417;28;20383;-80
2021/07/28 04:05:10;;;;;;;4.35;3.10;;;20.00;68.00;;;;;;4958585;28;20031;-80
2021/07/28 04:07:36;;;;;;;3.92;2.65;;;20.00;68.00;;;;;;4975063;28;20042;-79
2021/07/28 04:10:03;;;;;;;3.95;2.65;;;20.00;68.00;;;;;;4958417;28;20030;-80
2021/07/28 04:12:29;;;;;;;3.53;2.45;;;20.00;68.00;;;;;;4958126;28;20034;-80
2021/07/28 04:14:54;;;;;;;3.55;2.78;;;20.00;68.00;;;;;;4974357;28;20031;-80
2021/07/28 04:17:20;;;;;;;3.45;2.55;;;20.00;68.00;;;;;;4974435;28;20114;-80
2021/07/28 04:19:49;;;;;;;4.03;3.00;;;20.00;68.00;;;;;;4958355;28;20038;-80
2021/07/28 04:22:19;;;;;;;3.67;2.88;;;20.00;68.10;;;;;;4975509;28;20499;-80
2021/07/28 04:24:46;;;;;;;3.42;2.75;;;20.00;68.10;;;;;;4958368;28;20074;-80
2021/07/28 04:27:12;;;;;;;3.85;2.50;;;20.00;68.10;;;;;;4957698;28;20117;-80
2021/07/28 04:29:38;;;;;;;3.40;2.53;;;20.00;68.10;;;;;;4974849;28;20157;-79
2021/07/28 04:32:04;;;;;;;4.57;3.25;;;20.00;68.10;;;;;;4958146;28;20062;-80
2021/07/28 04:34:30;;;;;;;3.60;2.83;;;20.00;68.20;;;;;;4974114;28;20043;-80
2021/07/28 04:36:56;;;;;;;4.13;2.97;;;19.90;68.10;;;;;;4957924;28;20055;-80
2021/07/28 04:39:22;;;;;;;5.43;2.83;;;20.00;68.20;;;;;;4973953;28;20031;-79
2021/07/28 04:41:47;;;;;;;3.45;2.58;;;19.90;68.10;;;;;;4957858;28;20122;-80
2021/07/28 04:44:13;;;;;;;3.63;2.72;;;20.00;68.20;;;;;;4957830;28;20508;-80
2021/07/28 04:46:39;;;;;;;4.15;2.97;;;19.90;68.20;;;;;;4957543;28;20058;-79
2021/07/28 04:49:04;;;;;;;3.20;2.60;;;19.90;68.20;;;;;;4975052;28;20030;-81
2021/07/28 04:51:30;;;;;;;4.07;2.85;;;19.90;68.20;;;;;;4957715;28;20030;-80
2021/07/28 04:53:56;;;;;;;4.03;2.85;;;19.90;68.20;;;;;;4957846;28;20486;-81
2021/07/28 04:56:22;;;;;;;3.42;2.55;;;19.90;68.20;;;;;;4957778;28;20433;-80
2021/07/28 04:58:47;;;;;;;5.53;3.28;;;19.90;68.20;;;;;;4975522;28;20074;-80
2021/07/28 05:01:13;;;;;;;4.25;3.17;;;19.90;68.30;;;;;;4957548;28;20034;-80
2021/07/28 05:03:39;;;;;;;5.15;2.58;;;19.90;68.40;;;;;;4973342;28;20035;-80
2021/07/28 05:06:05;;;;;;;4.13;2.63;;;19.90;68.30;;;;;;4973670;28;20031;-80
2021/07/28 05:08:30;;;;;;;5.07;3.08;;;20.00;68.40;;;;;;4957798;28;20062;-80
2021/07/28 05:10:56;;;;;;;3.88;2.50;;;19.90;68.30;;;;;;4957479;28;20058;-80
2021/07/28 05:13:22;;;;;;;4.18;2.70;;;19.90;68.40;;;;;;4973456;28;20084;-80
2021/07/28 05:15:50;;;;;;;3.42;2.63;;;19.90;68.30;;;;;;4957716;28;20463;-80
2021/07/28 05:18:16;;;;;;;3.88;2.50;;;19.90;68.40;;;;;;4973641;28;20608;-80
2021/07/28 05:20:42;;;;;;;3.95;2.63;;;19.90;68.40;;;;;;4958250;28;20023;-80
2021/07/28 05:23:08;;;;;;;3.78;2.63;;;19.90;68.40;;;;;;4973415;28;20035;-80
2021/07/28 05:25:33;;;;;;;3.75;2.90;;;20.00;69.00;;;;;;4961629;28;20019;-80
2021/07/28 05:27:59;;;;;;;4.07;2.60;;;20.00;68.40;;;;;;4980398;28;20034;-81
2021/07/28 05:30:27;;;;;;;3.65;2.65;;;20.00;68.40;;;;;;4963828;28;20039;-80
2021/07/28 05:32:53;;;;;;;4.38;2.70;;;20.00;68.40;;;;;;4948438;28;20034;-80
2021/07/28 05:35:19;;;;;;;4.03;3.17;;;20.00;68.40;;;;;;4963781;28;20031;-80
2021/07/28 05:37:45;;;;;;;3.72;2.67;;;20.00;68.40;;;;;;4979494;28;20182;-80
2021/07/28 05:40:11;;;;;;;3.20;2.42;;;20.00;68.40;;;;;;4979968;28;20035;-81
2021/07/28 05:42:37;;;;;;;3.58;2.92;;;20.00;68.40;;;;;;4963531;28;20027;-80
2021/07/28 05:45:03;;;;;;;3.53;2.65;;;20.00;68.40;;;;;;4963206;28;20129;-80
2021/07/28 05:47:29;;;;;;;3.65;2.60;;;20.00;68.40;;;;;;4980830;28;20066;-79
2021/07/28 05:49:54;;;;;;;4.07;2.63;;;20.00;68.40;;;;;;4963406;28;20124;-80
2021/07/28 05:52:20;;;;;;;3.63;2.58;;;20.00;68.40;;;;;;4964254;28;20529;-80
2021/07/28 05:54:46;;;;;;;3.83;2.85;;;20.00;68.40;;;;;;4979593;28;20045;-80
2021/07/28 05:57:13;;;;;;;3.25;2.55;;;20.00;68.40;;;;;;4980189;28;20440;-80
2021/07/28 05:59:38;;;;;;;3.03;2.42;;;20.00;68.40;;;;;;4963364;28;20041;-80
2021/07/28 06:02:04;;;;;;;3.13;2.42;;;20.00;68.40;;;;;;4963465;28;20027;-80
2021/07/28 06:04:30;;;;;;;3.92;2.50;;;20.00;68.40;;;;;;4979727;28;20468;-79
2021/07/28 06:06:55;;;;;;;3.85;2.90;;;20.00;68.40;;;;;;4963518;28;20479;-80
2021/07/28 06:09:21;;;;;;;3.60;2.60;;;20.10;68.40;;;;;;4963319;28;20034;-80
2021/07/28 06:11:47;;;;;;;3.67;2.63;;;20.00;68.40;;;;;;4979465;28;20110;-79
2021/07/28 06:14:13;;;;;;;3.70;2.78;;;20.10;68.40;;;;;;4963325;28;20093;-80
2021/07/28 06:16:39;;;;;;;4.60;2.88;;;20.10;68.40;;;;;;4963564;28;20042;-80
2021/07/28 06:19:05;;;;;;;3.70;2.80;;;20.00;68.40;;;;;;4979383;28;20038;-81
2021/07/28 06:21:30;;;;;;;4.55;3.20;;;20.10;68.50;;;;;;4947344;28;20034;-80
2021/07/28 06:23:59;;;;;;;3.58;2.78;;;20.10;68.50;;;;;;4980236;28;20400;-80
2021/07/28 06:26:26;;;;;;;3.63;2.90;;;20.10;68.50;;;;;;4979421;28;20452;-80
2021/07/28 06:28:51;;;;;;;3.50;2.60;;;20.10;68.50;;;;;;4963278;28;20049;-80
2021/07/28 06:31:17;;;;;;;4.10;3.00;;;20.10;68.50;;;;;;4979531;28;20038;-80
2021/07/28 06:33:43;;;;;;;4.55;2.80;;;20.10;68.50;;;;;;4963325;28;20038;-80
2021/07/28 06:36:09;;;;;;;4.47;3.15;;;20.10;68.50;;;;;;4978001;28;20031;-79
2021/07/28 06:38:34;;;;;;;3.90;2.70;;;20.10;68.50;;;;;;4975804;28;20137;-80
2021/07/28 06:41:00;;;;;;;3.92;2.97;;;20.10;68.50;;;;;;4977933;28;20432;-81
2021/07/28 06:43:26;;;;;;;3.60;2.53;;;20.20;68.50;;;;;;4975938;28;20516;-82
2021/07/28 06:45:59;;;;;;;3.85;2.83;;;20.20;68.50;;;;;;4960098;28;20118;-82
2021/07/28 06:48:25;;;;;;;3.30;2.65;;;20.20;68.60;;;;;;4976245;28;20098;-81
2021/07/28 06:50:51;;;;;;;4.57;2.95;;;20.20;68.50;;;;;;4960040;28;20018;-79
2021/07/28 06:53:17;;;;;;;4.25;3.08;;;20.20;68.50;;;;;;4959740;28;20463;-83
2021/07/28 06:55:43;;;;;;;4.57;2.85;;;20.20;68.50;;;;;;4976311;28;20025;-80
2021/07/28 06:58:09;;;;;;;4.20;3.00;;;20.20;68.50;;;;;;4959945;28;20395;-82
2021/07/28 07:00:35;;;;;;;4.22;2.80;;;20.30;68.70;;;;;;4975980;28;20042;-82
2021/07/28 07:03:01;;;;;;;4.10;3.00;;;20.30;68.60;;;;;;4976649;28;20043;-81
2021/07/28 07:05:27;;;;;;;3.70;2.90;;;20.30;68.50;;;;;;4960103;28;20041;-84
2021/07/28 07:07:53;;;;;;;4.00;2.80;;;20.30;68.50;;;;;;4959915;28;20042;-83
2021/07/28 07:10:19;;;;;;;4.18;3.13;;;20.30;68.50;;;;;;4959488;28;20031;-83
2021/07/28 07:12:46;;;;;;;4.13;3.10;;;20.40;68.60;;;;;;4975842;28;20039;-80
2021/07/28 07:15:12;;;;;;;4.93;3.42;;;20.40;68.60;;;;;;4959997;28;20050;-82
2021/07/28 07:17:37;;;;;;;4.97;3.30;;;20.40;68.60;;;;;;4975581;28;20135;-83
2021/07/28 07:20:04;;;;;;;4.75;3.22;;;20.40;68.50;;;;;;4959518;28;20026;-80
2021/07/28 07:22:29;;;;;;;4.03;2.90;;;20.40;68.60;;;;;;4959608;28;20173;-83
2021/07/28 07:24:55;;;;;;;4.93;3.30;;;20.40;68.50;;;;;;4959536;28;20121;-82
2021/07/28 07:27:21;;;;;;;4.00;3.10;;;20.40;68.50;;;;;;4959209;28;20038;-83
2021/07/28 07:29:48;;;;;;;4.18;3.03;;;20.50;68.60;;;;;;4959228;28;20031;-81
2021/07/28 07:32:21;;;;;;;4.35;3.10;;;20.50;68.60;;;;;;4976895;28;20041;-82
2021/07/28 07:34:47;;;;;;;4.47;2.83;;;20.50;68.60;;;;;;4975681;28;20357;-81
2021/07/28 07:37:13;;;;;;;4.13;3.20;;;20.50;68.60;;;;;;4974963;28;20050;-82
2021/07/28 07:39:39;;;;;;;4.53;3.17;;;20.50;68.60;;;;;;4959217;28;20038;-83
2021/07/28 07:42:07;;;;;;;4.50;3.20;;;20.60;68.60;;;;;;4975530;28;20118;-83
2021/07/28 07:44:33;;;;;;;3.80;2.83;;;20.60;68.50;;;;;;4959243;28;20480;-83
2021/07/28 07:46:59;;;;;;;3.92;3.15;;;20.60;68.50;;;;;;4975248;28;20043;-84
2021/07/28 07:49:25;;;;;;;4.75;3.50;;;20.60;68.50;;;;;;4959033;28;20066;-81
2021/07/28 07:51:50;;;;;;;4.28;2.97;;;20.70;68.50;;;;;;4976197;28;20065;-82
2021/07/28 07:54:16;;;;;;;4.00;2.83;;;20.70;68.50;;;;;;4959058;28;20038;-84
2021/07/28 07:56:42;;;;;;;4.38;3.00;;;20.70;68.50;;;;;;4958858;28;20030;-84
2021/07/28 07:59:08;;;;;;;4.18;2.95;;;20.70;68.50;;;;;;4974562;28;20039;-81
2021/07/28 08:01:34;;;;;;;4.13;3.13;;;20.70;68.40;;;;;;4958614;28;20062;-82
2021/07/28 08:04:00;;;;;;;3.72;2.75;;;20.80;68.40;;;;;;4942385;28;20018;-81
2021/07/28 08:06:28;;;;;;;3.90;2.83;;;20.80;68.40;;;;;;4958137;28;20042;-84
2021/07/28 08:08:53;;;;;;;4.25;2.83;;;20.90;68.40;;;;;;4974806;28;20035;-83
2021/07/28 08:11:19;;;;;;;4.10;3.03;;;20.90;68.30;;;;;;4975920;28;20035;-79
2021/07/28 08:13:45;;;;;;;4.13;2.72;;;20.90;68.30;;;;;;4975758;28;20031;-84
2021/07/28 08:16:20;;;;;;;3.83;2.78;;;21.00;68.20;;;;;;4974996;28;20027;-84
2021/07/28 08:18:47;;;;;;;3.80;2.80;;;21.00;68.20;;;;;;4958941;28;20039;-85
2021/07/28 08:21:13;;;;;;;4.30;2.80;;;21.00;68.10;;;;;;4958711;28;20407;-85
2021/07/28 08:23:41;;;;;;;4.38;2.95;;;21.10;68.10;;;;;;4974707;28;20365;-84
2021/07/28 08:26:07;;;;;;;3.65;2.70;;;21.10;68.00;;;;;;4975310;28;20434;-82
2021/07/28 08:28:33;;;;;;;3.30;2.63;;;21.10;67.90;;;;;;4976228;28;20121;-85
2021/07/28 08:30:59;;;;;;;3.88;2.80;;;21.20;67.90;;;;;;4958541;28;20114;-84
2021/07/28 08:33:25;;;;;;;3.22;2.40;;;21.20;67.80;;;;;;4958483;28;20113;-83
2021/07/28 08:35:54;;;;;;;3.05;2.45;;;21.30;67.80;;;;;;4974397;28;20050;-85
2021/07/28 08:38:21;;;;;;;3.72;2.63;;;21.30;67.80;;;;;;4958675;28;20496;-82
2021/07/28 08:40:55;;;;;;;4.45;2.63;;;21.40;67.70;;;;;;4958753;28;20137;-85
2021/07/28 08:43:28;;;;;;;2.75;2.20;;;21.40;67.70;;;;;;4958764;28;20065;-84
2021/07/28 08:45:55;;;;;;;3.30;2.35;;;21.50;67.70;;;;;;4974755;28;20034;-85
2021/07/28 08:48:30;;;;;;;3.50;2.53;;;21.50;67.50;;;;;;4958201;28;20470;-83
2021/07/28 08:51:01;;;;;;;4.05;2.75;;;21.50;67.40;;;;;;4975172;28;20096;-83
2021/07/28 08:53:28;;;;;;;3.25;2.35;;;21.60;67.50;;;;;;4974358;28;20066;-86
2021/07/28 08:56:00;;;;;;;3.30;2.42;;;21.60;67.30;;;;;;4958601;28;20023;-84
2021/07/28 08:58:27;;;;;;;4.00;2.50;;;21.70;67.40;;;;;;4958177;28;20035;-84
2021/07/28 09:00:54;;;;;;;3.47;2.38;;;21.70;67.30;;;;;;4941140;28;20042;-82
2021/07/28 09:03:20;;;;;;;3.35;2.58;;;21.80;67.30;;;;;;4974639;28;20456;-83
2021/07/28 09:05:50;;;;;;;4.05;2.35;;;21.80;67.20;;;;;;4957928;28;20054;-82
2021/07/28 09:08:31;;;;;;;3.22;2.38;;;21.90;67.10;;;;;;4973824;28;20065;-83
2021/07/28 09:11:05;;;;;;;3.75;2.53;;;21.90;67.10;;;;;;4973777;28;20360;-80
2021/07/28 09:13:32;;;;;;;3.45;2.30;;;22.00;67.00;;;;;;4975121;28;20401;-81
2021/07/28 09:16:04;;;;;;;2.78;1.98;;;22.10;67.00;;;;;;4973514;28;20023;-80
2021/07/28 09:18:36;;;;;;;3.70;2.35;;;22.10;66.90;;;;;;4957104;28;20031;-79
2021/07/28 09:21:27;;;;;;;3.22;2.20;;;22.10;66.80;;;;;;4974093;28;20222;-80
2021/07/28 09:24:08;;;;;;;3.25;2.28;;;22.20;66.70;;;;;;4947082;28;20046;-80
2021/07/28 09:26:38;;;;;;;2.75;2.15;;;22.30;66.70;;;;;;4957143;28;20026;-80
2021/07/28 09:29:15;;;;;;;2.67;2.25;;;22.30;66.50;;;;;;4973264;28;20089;-81
2021/07/28 09:31:44;;;;;;;2.15;1.80;;;22.40;66.50;;;;;;4975139;28;20031;-80
2021/07/28 09:34:23;;;;;;;2.03;1.75;;;22.40;66.40;;;;;;4957477;28;20400;-80
2021/07/28 09:36:59;;;;;;;2.70;2.10;;;22.50;66.40;;;;;;4973814;28;20055;-80
2021/07/28 09:39:32;;;;;;;2.17;1.98;;;22.60;66.30;;;;;;4973297;28;20030;-81
2021/07/28 09:42:07;;;;;;;3.63;2.10;;;22.60;66.20;;;;;;4973887;28;20042;-80
2021/07/28 09:44:34;;;;;;;2.30;1.88;;;22.70;66.20;;;;;;4957922;28;20069;-81
2021/07/28 09:47:11;;;;;;;2.40;1.80;;;22.70;66.10;;;;;;4957247;28;20046;-80
2021/07/28 09:49:43;;;;;;;3.78;2.25;;;22.80;66.10;;;;;;4974429;28;20087;-81
2021/07/28 09:52:35;;;;;;;1.98;1.70;;;22.80;66.00;;;;;;4957354;28;20061;-80
2021/07/28 09:55:21;;;;;;;2.05;1.80;;;22.90;66.10;;;;;;4971107;28;20463;-80
2021/07/28 09:57:54;;;;;;;2.05;1.80;;;22.90;66.00;;;;;;4973292;28;20037;-80
2021/07/28 10:00:20;;;;;;;2.60;2.22;;;23.00;65.80;;;;;;4973324;28;20357;-80
2021/07/28 10:02:47;;;;;;;1.98;1.77;;;23.10;65.80;;;;;;4956996;28;20477;-79
2021/07/28 10:05:16;;;;;;;3.33;1.95;;;23.10;65.70;;;;;;4957213;28;20383;-80
2021/07/28 10:07:42;;;;;;;2.10;1.70;;;23.20;65.70;;;;;;4956780;28;20101;-79
2021/07/28 10:10:10;;;;;;;3.13;1.65;;;23.20;65.60;;;;;;4957642;28;20035;-79
2021/07/28 10:12:40;;;;;;;3.47;2.05;;;23.20;65.50;;;;;;4960297;28;20019;-79
2021/07/28 10:15:08;;;;;;;2.88;1.90;;;23.30;65.50;;;;;;4960530;28;20057;-80
2021/07/28 10:17:41;;;;;;;1.95;1.75;;;23.40;65.40;;;;;;4960622;28;20027;-81
2021/07/28 10:20:12;;;;;;;2.35;1.92;;;23.30;65.40;;;;;;4960481;28;20030;-80
2021/07/28 10:22:38;;;;;;;2.65;1.80;;;23.40;65.30;;;;;;4977731;28;20089;-79
2021/07/28 10:25:10;;;;;;;1.80;1.63;;;23.50;65.20;;;;;;4959991;28;20026;-80
2021/07/28 10:27:45;;;;;;;1.85;1.58;;;23.50;65.10;;;;;;4959831;28;20488;-80
2021/07/28 10:30:15;;;;;;;2.42;1.98;;;23.60;65.10;;;;;;4942282;28;20558;-80
2021/07/28 10:32:45;;;;;;;2.63;1.90;;;23.60;64.90;;;;;;4961003;28;20403;-80
2021/07/28 10:35:23;;;;;;;1.83;1.58;;;23.70;64.90;;;;;;4971152;28;20066;-80
2021/07/28 10:37:54;;;;;;;1.80;1.50;;;23.70;64.80;;;;;;4976323;28;20055;-80
2021/07/28 10:40:31;;;;;;;4.13;1.70;;;23.80;64.80;;;;;;4960789;28;20031;-79
2021/07/28 10:42:56;;;;;;;2.38;1.45;;;23.80;64.80;;;;;;4977464;28;20472;-77
2021/07/28 10:45:23;;;;;;;1.60;1.50;;;23.90;64.70;;;;;;4975771;28;20042;-80
2021/07/28 10:47:53;;;;;;;2.25;1.60;;;23.90;64.60;;;;;;4976211;28;20480;-79
2021/07/28 10:50:30;;;;;;;2.65;1.75;;;24.00;64.60;;;;;;4976026;28;20507;-79
2021/07/28 10:52:57;;;;;;;1.95;1.40;;;24.00;64.60;;;;;;4959989;28;20467;-80
2021/07/28 10:55:25;;;;;;;2.17;1.65;;;24.00;64.50;;;;;;4959939;28;20023;-85
2021/07/28 10:57:54;;;;;;;2.95;1.95;;;24.10;64.50;;;;;;4961030;28;20511;-81
2021/07/28 11:00:38;;;;;;;1.65;1.42;;;24.20;64.40;;;;;;4960734;28;20027;-84
2021/07/28 11:03:06;;;;;;;1.65;1.55;;;24.20;64.30;;;;;;4976292;28;20173;-85
2021/07/28 11:05:35;;;;;;;2.00;1.60;;;24.30;64.10;;;;;;4961026;28;20118;-84
2021/07/28 11:08:07;;;;;;;1.60;1.33;;;24.30;64.00;;;;;;4960991;28;20057;-84
2021/07/28 11:10:36;;;;;;;1.60;1.35;;;24.40;64.00;;;;;;4977414;28;20038;-83
2021/07/28 11:13:09;;;;;;;1.60;1.45;;;24.40;63.90;;;;;;4977481;28;20034;-84
2021/07/28 11:15:36;;;;;;;1.50;1.40;;;24.40;63.90;;;;;;4960547;28;20038;-84
2021/07/28 11:18:02;;;;;;;1.58;1.48;;;24.40;63.80;;;;;;4949060;28;20054;-85
2021/07/28 11:20:29;;;;;;;1.50;1.40;;;24.50;63.80;;;;;;4965810;28;20093;-84
2021/07/28 11:23:20;;;;;;;1.63;1.52;;;24.50;63.80;;;;;;4959144;28;20031;-85
2021/07/28 11:25:49;;;;;;;2.42;1.55;;;24.50;64.00;;;;;;4959122;28;20039;-85
2021/07/28 11:28:18;;;;;;;1.65;1.30;;;24.60;63.80;;;;;;4959891;28;20023;-85
2021/07/28 11:30:53;;;;;;;2.22;1.40;;;24.60;63.80;;;;;;4960605;28;20066;-86
2021/07/28 11:33:18;;;;;;;1.73;1.48;;;24.60;63.80;;;;;;4960155;28;20062;-86
2021/07/28 11:35:46;;;;;;;1.70;1.58;;;24.60;63.70;;;;;;4960311;28;20027;-84
2021/07/28 11:38:31;;;;;;;1.60;1.40;;;24.60;63.70;;;;;;4975424;28;20050;-84
2021/07/28 11:40:58;;;;;;;1.40;1.30;;;24.60;63.60;;;;;;4959627;28;20093;-84
2021/07/28 11:43:28;;;;;;;1.40;1.30;;;24.70;63.60;;;;;;4959289;28;20035;-84
2021/07/28 11:45:58;;;;;;;2.28;1.58;;;24.70;63.50;;;;;;4976177;28;20061;-83
2021/07/28 11:48:28;;;;;;;1.45;1.35;;;24.70;63.50;;;;;;4959321;28;20059;-83
2021/07/28 11:50:53;;;;;;;1.42;1.30;;;24.80;63.50;;;;;;4959139;28;20034;-84
2021/07/28 11:53:24;;;;;;;2.58;1.33;;;24.80;63.40;;;;;;4959191;28;20034;-84
2021/07/28 11:55:50;;;;;;;2.03;1.50;;;24.80;63.50;;;;;;4959742;28;20458;-83
2021/07/28 11:58:16;;;;;;;1.63;1.50;;;24.80;63.40;;;;;;4975172;28;20031;-84
2021/07/28 12:00:44;;;;;;;1.23;1.13;;;24.80;63.30;;;;;;4958795;28;20038;-84
2021/07/28 12:03:23;;;;;;;1.27;1.13;;;24.90;63.40;;;;;;4975190;28;20493;-83
2021/07/28 12:06:05;;;;;;;1.83;1.50;;;24.80;63.40;;;;;;4975185;28;20034;-83
2021/07/28 12:08:32;;;;;;;1.65;1.30;;;24.90;63.40;;;;;;4959317;28;20073;-83
2021/07/28 12:11:16;;;;;;;1.52;1.40;;;24.90;63.20;;;;;;4975396;28;20023;-83
2021/07/28 12:13:44;;;;;;;1.97;1.43;;;24.90;63.40;;;;;;4974828;28;20038;-83
2021/07/28 12:16:10;;;;;;;1.60;1.38;;;25.00;63.30;;;;;;4975913;28;20054;-82
2021/07/28 12:18:44;;;;;;;3.67;1.35;;;25.00;63.20;;;;;;4958655;28;20387;-83
2021/07/28 12:21:10;;;;;;;1.40;1.30;;;25.00;63.20;;;;;;4974868;28;20460;-82
2021/07/28 12:23:36;;;;;;;1.20;1.10;;;25.00;63.10;;;;;;4961491;28;20023;-89
2021/07/28 12:26:02;;;;;;;1.98;1.40;;;25.00;63.10;;;;;;4979012;28;20053;-86
2021/07/28 12:28:48;;;;;;;2.42;1.25;;;25.00;63.00;;;;;;4961048;28;20090;-89
2021/07/28 12:31:29;;;;;;;1.35;1.25;;;25.10;63.10;;;;;;4975081;28;20038;-83
2021/07/28 12:34:18;;;;;;;1.35;1.20;;;25.10;63.00;;;;;;4974344;28;20130;-83
2021/07/28 12:36:44;;;;;;;2.45;1.40;;;25.10;63.00;;;;;;4975166;28;20046;-85
2021/07/28 12:39:10;;;;;;;2.25;1.40;;;25.10;62.70;;;;;;4958721;28;20046;-83
2021/07/28 12:41:35;;;;;;;1.58;1.40;;;25.10;62.70;;;;;;4958454;28;20026;-84
2021/07/28 12:44:01;;;;;;;1.30;1.20;;;25.20;62.70;;;;;;4975155;28;20074;-81
2021/07/28 12:46:27;;;;;;;1.67;1.40;;;25.10;62.60;;;;;;4957987;28;20487;-82
2021/07/28 12:48:53;;;;;;;2.50;1.50;;;25.20;62.60;;;;;;4973946;28;20039;-82
2021/07/28 12:51:22;;;;;;;1.48;1.38;;;25.20;62.50;;;;;;4974588;28;20027;-82
2021/07/28 12:53:49;;;;;;;2.53;1.40;;;25.20;62.50;;;;;;4968779;28;20082;-86
2021/07/28 12:56:15;;;;;;;2.20;1.40;;;25.30;62.50;;;;;;4961586;28;20030;-81